N928CJ KLAS-KSAN
Flight info
| Callsign | N928CJ |
|---|---|
| Flight time | 0h 48m |
| Altitude | 40000 |
| Route | RADYR2 LVELL LUCKI1 |
| Aircraft | C700/M-SBDGHM1RWXY/LB2 |
Departure
| Time | 2026-05-04 03:10 |
|---|---|
| Airport | Harry Reid International Airport (KLAS) |
Arrival
| Time | 2026-05-04 03:58 |
|---|---|
| Airport | San Diego International Airport (KSAN) |
| Time | Latitude | Longitude | Altitude | Speed | Heading |
|---|---|---|---|---|---|
| 2026-05-04 02:55 | 36.08193 | -115.13232 | 2118 ft | 0 kts | 270° |
| 2026-05-04 03:05 | 36.08192 | -115.13263 | 2122 ft | 7 kts | 261° |
| 2026-05-04 03:06 | 36.08136 | -115.13293 | 2118 ft | 13 kts | 181° |
| 2026-05-04 03:06 | 36.08028 | -115.13293 | 2118 ft | 18 kts | 181° |
| 2026-05-04 03:06 | 36.07894 | -115.13294 | 2118 ft | 15 kts | 181° |
| 2026-05-04 03:06 | 36.07827 | -115.13208 | 2118 ft | 17 kts | 91° |
| 2026-05-04 03:07 | 36.07827 | -115.13047 | 2118 ft | 20 kts | 90° |
| 2026-05-04 03:07 | 36.07826 | -115.12858 | 2118 ft | 23 kts | 89° |
| 2026-05-04 03:07 | 36.07827 | -115.12646 | 2117 ft | 26 kts | 90° |
| 2026-05-04 03:07 | 36.07828 | -115.12409 | 2117 ft | 29 kts | 89° |
| 2026-05-04 03:08 | 36.07809 | -115.12243 | 2119 ft | 15 kts | 127° |
| 2026-05-04 03:08 | 36.07746 | -115.12147 | 2117 ft | 0 kts | 134° |
| 2026-05-04 03:09 | 36.07740 | -115.12140 | 2119 ft | 6 kts | 136° |
| 2026-05-04 03:09 | 36.07661 | -115.12127 | 2118 ft | 17 kts | 194° |
| 2026-05-04 03:09 | 36.07613 | -115.12251 | 2120 ft | 19 kts | 288° |
| 2026-05-04 03:10 | 36.07643 | -115.12427 | 2117 ft | 22 kts | 269° |
| 2026-05-04 03:10 | 36.07643 | -115.12984 | 2117 ft | 118 kts | 271° |
| 2026-05-04 03:10 | 36.07694 | -115.14250 | 2798 ft | 165 kts | 267° |
| 2026-05-04 03:10 | 36.07795 | -115.15750 | 3781 ft | 182 kts | 268° |
| 2026-05-04 03:11 | 36.07866 | -115.17305 | 4652 ft | 183 kts | 267° |
| 2026-05-04 03:11 | 36.07851 | -115.18920 | 5323 ft | 191 kts | 259° |
| 2026-05-04 03:11 | 36.07567 | -115.20572 | 5921 ft | 202 kts | 251° |
| 2026-05-04 03:11 | 36.07204 | -115.22273 | 6437 ft | 209 kts | 252° |
| 2026-05-04 03:12 | 36.06767 | -115.23984 | 7120 ft | 204 kts | 239° |
| 2026-05-04 03:12 | 36.05908 | -115.25374 | 7659 ft | 212 kts | 224° |
| 2026-05-04 03:12 | 36.04726 | -115.26562 | 8086 ft | 227 kts | 213° |
| 2026-05-04 03:12 | 36.03352 | -115.27627 | 8539 ft | 237 kts | 206° |
| 2026-05-04 03:13 | 36.01839 | -115.28382 | 9245 ft | 235 kts | 201° |
| 2026-05-04 03:13 | 36.00261 | -115.29023 | 9674 ft | 244 kts | 197° |
| 2026-05-04 03:13 | 35.98585 | -115.29646 | 9768 ft | 257 kts | 197° |
| 2026-05-04 03:13 | 35.96853 | -115.30288 | 10902 ft | 250 kts | 196° |
| 2026-05-04 03:14 | 35.95476 | -115.30503 | 14100 ft | 166 kts | 183° |
| 2026-05-04 03:14 | 35.94301 | -115.30633 | 15511 ft | 184 kts | 188° |
| 2026-05-04 03:14 | 35.92942 | -115.30926 | 16266 ft | 212 kts | 192° |
| 2026-05-04 03:14 | 35.91428 | -115.31309 | 17088 ft | 238 kts | 193° |
| 2026-05-04 03:15 | 35.89712 | -115.31741 | 17886 ft | 265 kts | 193° |
| 2026-05-04 03:15 | 35.87808 | -115.32206 | 18648 ft | 293 kts | 194° |
| 2026-05-04 03:15 | 35.87182 | -115.32360 | 18779 ft | 306 kts | 194° |
| 2026-05-04 03:15 | 35.85968 | -115.32660 | 18804 ft | 331 kts | 194° |
| 2026-05-04 03:16 | 35.83597 | -115.33247 | 18830 ft | 365 kts | 195° |
| 2026-05-04 03:16 | 35.80998 | -115.33884 | 18830 ft | 391 kts | 194° |
| 2026-05-04 03:16 | 35.78388 | -115.34506 | 20002 ft | 369 kts | 195° |
| 2026-05-04 03:16 | 35.75973 | -115.35086 | 22382 ft | 339 kts | 198° |
| 2026-05-04 03:17 | 35.73686 | -115.35651 | 24022 ft | 337 kts | 200° |
| 2026-05-04 03:17 | 35.71356 | -115.36243 | 24960 ft | 346 kts | 200° |
| 2026-05-04 03:17 | 35.69006 | -115.36821 | 25927 ft | 353 kts | 200° |
| 2026-05-04 03:17 | 35.66568 | -115.37409 | 26825 ft | 361 kts | 200° |
| 2026-05-04 03:18 | 35.64080 | -115.38014 | 27722 ft | 368 kts | 200° |
| 2026-05-04 03:18 | 35.61518 | -115.38527 | 28598 ft | 381 kts | 195° |
| 2026-05-04 03:18 | 35.58814 | -115.38644 | 29482 ft | 397 kts | 188° |
| 2026-05-04 03:18 | 35.56020 | -115.38442 | 30291 ft | 406 kts | 186° |
| 2026-05-04 03:19 | 35.53180 | -115.38233 | 31068 ft | 411 kts | 187° |
| 2026-05-04 03:19 | 35.50641 | -115.38060 | 31731 ft | 415 kts | 188° |
| 2026-05-04 03:19 | 35.49957 | -115.38014 | 31895 ft | 416 kts | 188° |
| 2026-05-04 03:19 | 35.47048 | -115.37811 | 32622 ft | 421 kts | 188° |
| 2026-05-04 03:20 | 35.44105 | -115.37599 | 33318 ft | 426 kts | 189° |
| 2026-05-04 03:20 | 35.41127 | -115.37385 | 34002 ft | 431 kts | 189° |
| 2026-05-04 03:20 | 35.38124 | -115.37172 | 34616 ft | 434 kts | 191° |
| 2026-05-04 03:20 | 35.35105 | -115.36958 | 35299 ft | 435 kts | 191° |
| 2026-05-04 03:21 | 35.32086 | -115.36742 | 36065 ft | 433 kts | 191° |
| 2026-05-04 03:21 | 35.29103 | -115.36521 | 37000 ft | 426 kts | 192° |
| 2026-05-04 03:21 | 35.26164 | -115.36312 | 37847 ft | 420 kts | 193° |
| 2026-05-04 03:21 | 35.23259 | -115.36115 | 38475 ft | 417 kts | 194° |
| 2026-05-04 03:22 | 35.20418 | -115.35918 | 39002 ft | 414 kts | 193° |
| 2026-05-04 03:22 | 35.17546 | -115.35716 | 39302 ft | 414 kts | 193° |
| 2026-05-04 03:22 | 35.14662 | -115.35514 | 39617 ft | 415 kts | 193° |
| 2026-05-04 03:22 | 35.11774 | -115.35312 | 39796 ft | 419 kts | 192° |
| 2026-05-04 03:23 | 35.08834 | -115.35113 | 39802 ft | 427 kts | 192° |
| 2026-05-04 03:23 | 35.02803 | -115.34691 | 39800 ft | 441 kts | 191° |
| 2026-05-04 03:24 | 34.96651 | -115.34252 | 39796 ft | 442 kts | 191° |
| 2026-05-04 03:24 | 34.90605 | -115.33833 | 39767 ft | 435 kts | 192° |
| 2026-05-04 03:25 | 34.84559 | -115.33422 | 39754 ft | 435 kts | 192° |
| 2026-05-04 03:25 | 34.78653 | -115.33754 | 39763 ft | 417 kts | 201° |
| 2026-05-04 03:26 | 34.73085 | -115.35306 | 39747 ft | 404 kts | 211° |
| 2026-05-04 03:26 | 34.67877 | -115.37577 | 39745 ft | 398 kts | 212° |
| 2026-05-04 03:27 | 34.62698 | -115.39829 | 39731 ft | 393 kts | 212° |
| 2026-05-04 03:27 | 34.57545 | -115.42092 | 39733 ft | 395 kts | 212° |
| 2026-05-04 03:28 | 34.52355 | -115.44352 | 39722 ft | 398 kts | 212° |
| 2026-05-04 03:28 | 34.47166 | -115.46616 | 39725 ft | 400 kts | 212° |
| 2026-05-04 03:29 | 34.41930 | -115.48891 | 39725 ft | 400 kts | 212° |
| 2026-05-04 03:29 | 34.36682 | -115.51176 | 39725 ft | 402 kts | 212° |
| 2026-05-04 03:30 | 34.31597 | -115.53777 | 39737 ft | 391 kts | 218° |
| 2026-05-04 03:30 | 34.26970 | -115.57113 | 39240 ft | 385 kts | 222° |
| 2026-05-04 03:30 | 34.24706 | -115.58767 | 38736 ft | 375 kts | 222° |
| 2026-05-04 03:31 | 34.22537 | -115.60333 | 38233 ft | 363 kts | 222° |
| 2026-05-04 03:31 | 34.20323 | -115.61711 | 37760 ft | 354 kts | 219° |
| 2026-05-04 03:31 | 34.18073 | -115.62871 | 37254 ft | 350 kts | 215° |
| 2026-05-04 03:31 | 34.15804 | -115.63943 | 36835 ft | 354 kts | 215° |
| 2026-05-04 03:32 | 34.13470 | -115.65078 | 36381 ft | 370 kts | 214° |
| 2026-05-04 03:32 | 34.11031 | -115.66238 | 35893 ft | 382 kts | 214° |
| 2026-05-04 03:32 | 34.08535 | -115.67392 | 35378 ft | 385 kts | 213° |
| 2026-05-04 03:32 | 34.06047 | -115.68549 | 34868 ft | 382 kts | 214° |
| 2026-05-04 03:33 | 34.03585 | -115.69714 | 34370 ft | 379 kts | 214° |
| 2026-05-04 03:33 | 34.01138 | -115.70879 | 33873 ft | 379 kts | 214° |
| 2026-05-04 03:33 | 33.98709 | -115.72026 | 33347 ft | 381 kts | 213° |
| 2026-05-04 03:33 | 33.96222 | -115.73195 | 32842 ft | 386 kts | 213° |
| 2026-05-04 03:34 | 33.93705 | -115.74379 | 32332 ft | 392 kts | 213° |
| 2026-05-04 03:34 | 33.91148 | -115.75584 | 31792 ft | 397 kts | 212° |
| 2026-05-04 03:34 | 33.88575 | -115.76840 | 31294 ft | 402 kts | 213° |
| 2026-05-04 03:34 | 33.85978 | -115.78145 | 30762 ft | 408 kts | 213° |
| 2026-05-04 03:35 | 33.83343 | -115.79441 | 30224 ft | 410 kts | 212° |
| 2026-05-04 03:35 | 33.80686 | -115.80727 | 29652 ft | 413 kts | 212° |
| 2026-05-04 03:35 | 33.78033 | -115.82018 | 29097 ft | 409 kts | 212° |
| 2026-05-04 03:35 | 33.75443 | -115.83281 | 28568 ft | 406 kts | 211° |
| 2026-05-04 03:36 | 33.72819 | -115.84506 | 28033 ft | 403 kts | 210° |
| 2026-05-04 03:36 | 33.70206 | -115.85702 | 27502 ft | 401 kts | 210° |
| 2026-05-04 03:36 | 33.67614 | -115.86913 | 26974 ft | 399 kts | 210° |
| 2026-05-04 03:36 | 33.65035 | -115.88133 | 26427 ft | 398 kts | 210° |
| 2026-05-04 03:37 | 33.62464 | -115.89339 | 25928 ft | 396 kts | 210° |
| 2026-05-04 03:37 | 33.59895 | -115.90533 | 25406 ft | 395 kts | 210° |
| 2026-05-04 03:37 | 33.57358 | -115.91755 | 24886 ft | 389 kts | 212° |
| 2026-05-04 03:37 | 33.54992 | -115.93234 | 24378 ft | 380 kts | 217° |
| 2026-05-04 03:38 | 33.52838 | -115.94945 | 23886 ft | 373 kts | 222° |
| 2026-05-04 03:38 | 33.50856 | -115.96895 | 23455 ft | 365 kts | 226° |
| 2026-05-04 03:38 | 33.49086 | -115.99030 | 23012 ft | 358 kts | 231° |
| 2026-05-04 03:38 | 33.47520 | -116.01335 | 22613 ft | 356 kts | 236° |
| 2026-05-04 03:39 | 33.46111 | -116.03767 | 22211 ft | 356 kts | 238° |
| 2026-05-04 03:39 | 33.44697 | -116.06204 | 21818 ft | 357 kts | 237° |
| 2026-05-04 03:39 | 33.43274 | -116.08637 | 21418 ft | 356 kts | 237° |
| 2026-05-04 03:39 | 33.41866 | -116.11058 | 21025 ft | 353 kts | 237° |
| 2026-05-04 03:40 | 33.40470 | -116.13464 | 20630 ft | 350 kts | 237° |
| 2026-05-04 03:40 | 33.39102 | -116.15817 | 20261 ft | 348 kts | 237° |
| 2026-05-04 03:40 | 33.37722 | -116.18186 | 19876 ft | 346 kts | 237° |
| 2026-05-04 03:40 | 33.36346 | -116.20537 | 19493 ft | 345 kts | 236° |
| 2026-05-04 03:41 | 33.34796 | -116.22759 | 19113 ft | 351 kts | 230° |
| 2026-05-04 03:41 | 33.33007 | -116.24750 | 18729 ft | 351 kts | 223° |
| 2026-05-04 03:41 | 33.31030 | -116.26457 | 18357 ft | 352 kts | 217° |
| 2026-05-04 03:41 | 33.28865 | -116.27878 | 17974 ft | 359 kts | 211° |
| 2026-05-04 03:42 | 33.26608 | -116.29181 | 17565 ft | 360 kts | 211° |
| 2026-05-04 03:42 | 33.24394 | -116.30482 | 17159 ft | 358 kts | 211° |
| 2026-05-04 03:42 | 33.22166 | -116.31797 | 16730 ft | 356 kts | 210° |
| 2026-05-04 03:42 | 33.19947 | -116.33095 | 16331 ft | 354 kts | 210° |
| 2026-05-04 03:43 | 33.17741 | -116.34383 | 15935 ft | 352 kts | 210° |
| 2026-05-04 03:43 | 33.15549 | -116.35665 | 15538 ft | 350 kts | 210° |
| 2026-05-04 03:43 | 33.13365 | -116.36942 | 15149 ft | 349 kts | 210° |
| 2026-05-04 03:43 | 33.11194 | -116.38210 | 14803 ft | 346 kts | 210° |
| 2026-05-04 03:44 | 33.09037 | -116.39470 | 14437 ft | 342 kts | 210° |
| 2026-05-04 03:44 | 33.06952 | -116.40683 | 14062 ft | 324 kts | 210° |
| 2026-05-04 03:44 | 33.05011 | -116.41812 | 13709 ft | 306 kts | 210° |
| 2026-05-04 03:44 | 33.03132 | -116.42909 | 13354 ft | 296 kts | 210° |
| 2026-05-04 03:45 | 33.01298 | -116.43999 | 13018 ft | 294 kts | 212° |
| 2026-05-04 03:45 | 32.99605 | -116.45369 | 12709 ft | 296 kts | 221° |
| 2026-05-04 03:45 | 32.98038 | -116.46967 | 12375 ft | 295 kts | 223° |
| 2026-05-04 03:45 | 32.96479 | -116.48542 | 12050 ft | 294 kts | 223° |
| 2026-05-04 03:46 | 32.94915 | -116.50112 | 11722 ft | 294 kts | 223° |
| 2026-05-04 03:46 | 32.93368 | -116.51671 | 11433 ft | 290 kts | 223° |
| 2026-05-04 03:46 | 32.91836 | -116.53220 | 11110 ft | 288 kts | 223° |
| 2026-05-04 03:46 | 32.90316 | -116.54751 | 10796 ft | 282 kts | 223° |
| 2026-05-04 03:47 | 32.88884 | -116.56192 | 10489 ft | 266 kts | 222° |
| 2026-05-04 03:47 | 32.87498 | -116.57589 | 10212 ft | 258 kts | 222° |
| 2026-05-04 03:47 | 32.86143 | -116.58955 | 9930 ft | 254 kts | 222° |
| 2026-05-04 03:47 | 32.84788 | -116.60320 | 9624 ft | 256 kts | 222° |
| 2026-05-04 03:48 | 32.83427 | -116.61690 | 9347 ft | 257 kts | 222° |
| 2026-05-04 03:48 | 32.82054 | -116.63074 | 9080 ft | 260 kts | 222° |
| 2026-05-04 03:48 | 32.80671 | -116.64465 | 8792 ft | 261 kts | 222° |
| 2026-05-04 03:48 | 32.79284 | -116.65861 | 8506 ft | 261 kts | 222° |
| 2026-05-04 03:49 | 32.77927 | -116.67291 | 8210 ft | 260 kts | 227° |
| 2026-05-04 03:49 | 32.76828 | -116.68981 | 7930 ft | 258 kts | 238° |
| 2026-05-04 03:49 | 32.75954 | -116.70833 | 7645 ft | 257 kts | 242° |
| 2026-05-04 03:49 | 32.75092 | -116.72656 | 7371 ft | 257 kts | 241° |
| 2026-05-04 03:50 | 32.74207 | -116.74513 | 7085 ft | 259 kts | 241° |
| 2026-05-04 03:50 | 32.73324 | -116.76371 | 6800 ft | 258 kts | 242° |
| 2026-05-04 03:50 | 32.72455 | -116.78209 | 6523 ft | 251 kts | 242° |
| 2026-05-04 03:50 | 32.71619 | -116.79971 | 6232 ft | 237 kts | 242° |
| 2026-05-04 03:51 | 32.70846 | -116.81610 | 5963 ft | 219 kts | 244° |
| 2026-05-04 03:51 | 32.70309 | -116.83223 | 5721 ft | 203 kts | 252° |
| 2026-05-04 03:51 | 32.69834 | -116.84767 | 5501 ft | 197 kts | 250° |
| 2026-05-04 03:51 | 32.69353 | -116.86284 | 5276 ft | 197 kts | 250° |
| 2026-05-04 03:52 | 32.68872 | -116.87822 | 5049 ft | 200 kts | 251° |
| 2026-05-04 03:52 | 32.68419 | -116.89395 | 4824 ft | 203 kts | 252° |
| 2026-05-04 03:52 | 32.67945 | -116.90979 | 4574 ft | 204 kts | 251° |
| 2026-05-04 03:52 | 32.67498 | -116.92571 | 4327 ft | 202 kts | 257° |
| 2026-05-04 03:53 | 32.67413 | -116.94215 | 4100 ft | 199 kts | 275° |
| 2026-05-04 03:53 | 32.67699 | -116.95754 | 3879 ft | 190 kts | 287° |
| 2026-05-04 03:53 | 32.68069 | -116.97218 | 3669 ft | 182 kts | 285° |
| 2026-05-04 03:53 | 32.68413 | -116.98652 | 3459 ft | 180 kts | 286° |
| 2026-05-04 03:54 | 32.68759 | -117.00069 | 3248 ft | 177 kts | 285° |
| 2026-05-04 03:54 | 32.69096 | -117.01449 | 3072 ft | 168 kts | 285° |
| 2026-05-04 03:54 | 32.69421 | -117.02781 | 2832 ft | 169 kts | 285° |
| 2026-05-04 03:54 | 32.69748 | -117.04125 | 2651 ft | 170 kts | 285° |
| 2026-05-04 03:55 | 32.70090 | -117.05484 | 2424 ft | 173 kts | 286° |
| 2026-05-04 03:55 | 32.70434 | -117.06841 | 2193 ft | 175 kts | 284° |
| 2026-05-04 03:55 | 32.70757 | -117.08228 | 2018 ft | 165 kts | 284° |
| 2026-05-04 03:55 | 32.71044 | -117.09378 | 2005 ft | 122 kts | 285° |
| 2026-05-04 03:56 | 32.71256 | -117.10282 | 1883 ft | 114 kts | 283° |
| 2026-05-04 03:56 | 32.71460 | -117.11228 | 1617 ft | 121 kts | 282° |
| 2026-05-04 03:56 | 32.71689 | -117.12179 | 1381 ft | 120 kts | 286° |
| 2026-05-04 03:56 | 32.71937 | -117.13132 | 1069 ft | 123 kts | 284° |
| 2026-05-04 03:57 | 32.72166 | -117.14095 | 841 ft | 120 kts | 283° |
| 2026-05-04 03:57 | 32.72407 | -117.15051 | 672 ft | 121 kts | 284° |
| 2026-05-04 03:57 | 32.72640 | -117.16003 | 468 ft | 119 kts | 283° |
| 2026-05-04 03:57 | 32.72862 | -117.16938 | 270 ft | 117 kts | 282° |
| 2026-05-04 03:58 | 32.73293 | -117.18703 | 22 ft | 84 kts | 283° |
| 2026-05-04 03:58 | 32.73382 | -117.19085 | 21 ft | 2 kts | 275° |
| 2026-05-04 03:58 | 32.73352 | -117.19152 | 20 ft | 10 kts | 204° |
| 2026-05-04 03:59 | 32.73350 | -117.19153 | 19 ft | 0 kts | 204° |
| 2026-05-04 03:59 | 32.73337 | -117.19157 | 19 ft | 7 kts | 183° |
| 2026-05-04 03:59 | 32.73279 | -117.19077 | 20 ft | 20 kts | 105° |
| 2026-05-04 03:59 | 32.73244 | -117.18934 | 20 ft | 10 kts | 106° |
| 2026-05-04 04:00 | 32.73248 | -117.18871 | 21 ft | 0 kts | 51° |
| 2026-05-04 04:01 | 32.73252 | -117.18867 | 21 ft | 5 kts | 50° |
| 2026-05-04 04:01 | 32.73324 | -117.18834 | 19 ft | 16 kts | 15° |
| 2026-05-04 04:02 | 32.73392 | -117.18813 | 18 ft | 13 kts | 23° |
| 2026-05-04 04:02 | 32.73408 | -117.18706 | 20 ft | 17 kts | 105° |
| 2026-05-04 04:02 | 32.73370 | -117.18550 | 23 ft | 22 kts | 105° |
| 2026-05-04 04:02 | 32.73323 | -117.18359 | 22 ft | 26 kts | 106° |
| 2026-05-04 04:03 | 32.73268 | -117.18131 | 22 ft | 31 kts | 105° |
| 2026-05-04 04:03 | 32.73246 | -117.18012 | 21 ft | 12 kts | 82° |
| 2026-05-04 04:03 | 32.73318 | -117.17963 | 22 ft | 14 kts | 15° |
| 2026-05-04 04:03 | 32.73396 | -117.17940 | 22 ft | 8 kts | 7° |
| 2026-05-04 04:04 | 32.73428 | -117.17946 | 23 ft | 2 kts | 327° |
| 2026-05-04 04:04 | 32.73435 | -117.17961 | 22 ft | 0 kts | 290° |